Time;durP1;ratioP1;P1;durP2;ratioP2;P2;SDS_P1;SDS_P2;PMS_P1;PMS_P2;Temp;Humidity;BMP_temperature;BMP_pressure;BME280_temperature;BME280_humidity;BME280_pressure;Samples;Min_cycle;Max_cycle;Signal;HPM_P1;HPM_P2
2022/12/04 00:00:11;;;;;;;41.07;17.90;;;2.80;88.00;;;;;;5009450;28;20714;-75
2022/12/04 00:02:37;;;;;;;39.63;16.97;;;2.70;88.00;;;;;;5009937;28;20185;-76
2022/12/04 00:05:04;;;;;;;48.17;16.87;;;2.60;88.30;;;;;;5010548;28;20957;-75
2022/12/04 00:07:30;;;;;;;42.23;17.97;;;2.70;88.70;;;;;;5000792;28;20289;-75
2022/12/04 00:09:55;;;;;;;43.00;18.77;;;2.60;88.70;;;;;;5008305;28;21331;-73
2022/12/04 00:12:21;;;;;;;39.53;17.23;;;2.60;89.00;;;;;;5010996;28;20182;-75
2022/12/04 00:14:47;;;;;;;45.63;17.10;;;2.70;88.90;;;;;;5010723;28;20206;-75
2022/12/04 00:17:12;;;;;;;43.23;18.40;;;2.80;88.90;;;;;;5006893;28;20186;-75
2022/12/04 00:19:38;;;;;;;38.90;16.97;;;2.80;88.70;;;;;;5009491;28;20190;-76
2022/12/04 00:22:03;;;;;;;39.47;17.90;;;2.80;88.60;;;;;;5019263;28;20220;-74
2022/12/04 00:24:29;;;;;;;41.30;18.47;;;2.90;88.30;;;;;;5019597;28;20189;-73
2022/12/04 00:26:55;;;;;;;40.67;15.90;;;2.80;88.10;;;;;;5023830;28;20205;-75
2022/12/04 00:29:20;;;;;;;40.10;17.13;;;2.90;88.00;;;;;;5018969;28;20709;-75
2022/12/04 00:31:46;;;;;;;41.67;16.77;;;2.80;87.80;;;;;;5012532;28;20202;-76
2022/12/04 00:34:12;;;;;;;41.50;17.20;;;2.70;88.00;;;;;;5014297;28;20728;-76
2022/12/04 00:36:37;;;;;;;36.67;17.43;;;2.70;87.80;;;;;;5015003;28;20182;-76
2022/12/04 00:39:04;;;;;;;36.60;15.67;;;2.70;88.10;;;;;;5008292;28;20209;-75
2022/12/04 00:41:31;;;;;;;43.07;17.23;;;2.70;88.10;;;;;;5010956;28;20221;-74
2022/12/04 00:43:58;;;;;;;40.37;16.10;;;2.70;88.00;;;;;;5011719;28;20552;-75
2022/12/04 00:46:23;;;;;;;39.90;16.73;;;2.70;88.10;;;;;;5015661;28;21121;-75
2022/12/04 00:48:50;;;;;;;38.30;16.87;;;2.80;88.10;;;;;;5006761;28;20552;-75
2022/12/04 00:51:18;;;;;;;38.33;16.73;;;2.80;88.00;;;;;;5012932;28;20190;-76
2022/12/04 00:53:44;;;;;;;41.07;16.50;;;2.80;87.80;;;;;;5011345;28;20483;-73
2022/12/04 00:56:14;;;;;;;32.17;15.70;;;2.80;87.60;;;;;;5014205;28;20420;-75
2022/12/04 00:58:40;;;;;;;33.30;16.03;;;2.70;87.60;;;;;;5001962;28;20556;-76
2022/12/04 01:01:11;;;;;;;37.00;14.90;;;2.60;87.80;;;;;;5015924;28;20866;-74
2022/12/04 01:03:37;;;;;;;36.50;15.63;;;2.70;88.00;;;;;;5019620;28;20197;-75
2022/12/04 01:06:04;;;;;;;36.03;16.00;;;2.70;87.80;;;;;;5017081;28;20458;-75
2022/12/04 01:08:30;;;;;;;36.87;15.60;;;2.50;88.00;;;;;;5009142;28;20546;-75
2022/12/04 01:10:55;;;;;;;35.57;15.83;;;2.60;88.30;;;;;;5015118;28;20516;-72
2022/12/04 01:13:22;;;;;;;36.67;15.57;;;2.60;88.30;;;;;;5008955;28;20696;-75
2022/12/04 01:15:48;;;;;;;35.22;13.80;;;2.60;88.30;;;;;;5014056;28;20182;-74
2022/12/04 01:18:15;;;;;;;34.67;14.80;;;2.60;88.30;;;;;;5008702;28;20201;-75
2022/12/04 01:20:49;;;;;;;31.93;15.23;;;2.60;88.30;;;;;;5006861;28;20793;-73
2022/12/04 01:23:16;;;;;;;34.50;13.90;;;2.70;88.40;;;;;;5002706;28;20513;-74
2022/12/04 01:25:50;;;;;;;38.60;17.07;;;2.70;88.30;;;;;;5011647;28;20431;-75
2022/12/04 01:28:15;;;;;;;28.47;14.20;;;2.70;88.30;;;;;;5007077;28;20503;-74
2022/12/04 01:30:41;;;;;;;32.30;14.60;;;2.80;88.30;;;;;;5011713;28;20437;-74
2022/12/04 01:33:06;;;;;;;38.77;16.07;;;2.80;88.10;;;;;;5009615;28;20210;-73
2022/12/04 01:35:32;;;;;;;33.10;14.20;;;2.80;88.00;;;;;;5011984;28;20182;-74
2022/12/04 01:37:58;;;;;;;37.53;15.67;;;2.70;87.80;;;;;;5007040;28;20559;-74
2022/12/04 01:40:23;;;;;;;37.90;15.57;;;2.70;88.00;;;;;;5011749;28;20296;-75
2022/12/04 01:42:49;;;;;;;34.37;13.50;;;2.70;88.30;;;;;;5008473;28;20204;-76
2022/12/04 01:45:36;;;;;;;38.80;14.10;;;2.80;88.40;;;;;;5012059;28;20236;-76
2022/12/04 01:48:13;;;;;;;32.13;13.50;;;2.80;88.10;;;;;;5008616;28;20309;-76
2022/12/04 01:50:41;;;;;;;32.93;15.87;;;2.70;88.10;;;;;;5006434;28;20746;-76
2022/12/04 01:53:07;;;;;;;39.17;16.10;;;2.70;88.30;;;;;;5011808;28;20494;-74
2022/12/04 01:55:33;;;;;;;35.23;14.97;;;2.70;88.30;;;;;;5009052;28;20421;-74
2022/12/04 01:58:00;;;;;;;36.00;15.60;;;2.70;88.40;;;;;;5008066;28;20456;-76
2022/12/04 02:00:26;;;;;;;36.53;15.73;;;2.80;88.40;;;;;;5012440;28;20196;-77
2022/12/04 02:02:51;;;;;;;33.40;15.30;;;2.80;88.10;;;;;;5013647;28;20425;-76
2022/12/04 02:05:20;;;;;;;37.43;15.30;;;2.80;88.10;;;;;;5012427;28;20194;-76
2022/12/04 02:07:47;;;;;;;37.83;15.53;;;2.80;88.10;;;;;;5006862;28;20218;-74
2022/12/04 02:10:16;;;;;;;38.80;16.20;;;2.80;88.00;;;;;;5008538;28;20432;-76
2022/12/04 02:12:51;;;;;;;36.40;14.50;;;2.70;88.10;;;;;;5007833;28;20431;-74
2022/12/04 02:15:21;;;;;;;33.45;14.02;;;2.70;88.30;;;;;;5010866;28;20413;-74
2022/12/04 02:18:25;;;;;;;38.45;15.20;;;2.70;88.30;;;;;;5006828;28;20206;-75
2022/12/04 02:21:22;;;;;;;34.05;14.95;;;2.70;88.40;;;;;;4970277;28;20190;-73
2022/12/04 02:24:00;;;;;;;33.33;14.90;;;2.70;88.40;;;;;;5003942;28;20241;-76
2022/12/04 02:26:48;;;;;;;30.65;14.13;;;2.70;88.40;;;;;;5009218;28;20431;-74
2022/12/04 02:29:29;;;;;;;36.03;15.05;;;2.70;88.40;;;;;;5009616;28;20275;-74
2022/12/04 02:32:03;;;;;;;36.20;15.37;;;2.70;88.70;;;;;;5010370;28;20192;-74
2022/12/04 02:34:42;;;;;;;33.53;14.30;;;2.60;88.70;;;;;;5009661;28;20831;-75
2022/12/04 02:37:13;;;;;;;34.03;14.13;;;2.70;88.70;;;;;;5010208;28;20439;-75
2022/12/04 02:40:04;;;;;;;44.35;16.10;;;2.60;88.30;;;;;;5006392;28;20432;-74
2022/12/04 02:42:41;;;;;;;32.30;14.27;;;2.60;88.70;;;;;;5004665;28;20190;-74
2022/12/04 02:45:20;;;;;;;34.93;15.27;;;2.60;88.70;;;;;;5010831;28;20421;-75
2022/12/04 02:47:46;;;;;;;36.57;15.53;;;2.70;88.70;;;;;;5002085;28;20468;-75
2022/12/04 02:50:15;;;;;;;39.70;16.88;;;2.70;88.60;;;;;;5012565;28;20432;-75
2022/12/04 02:53:09;;;;;;;36.23;14.67;;;2.70;88.30;;;;;;5015188;28;20247;-74
2022/12/04 02:55:42;;;;;;;39.23;16.00;;;2.70;88.30;;;;;;5016340;28;21068;-76
2022/12/04 02:58:14;;;;;;;36.63;15.87;;;2.70;88.30;;;;;;5012751;28;20460;-74
2022/12/04 03:00:43;;;;;;;36.67;16.00;;;2.80;88.60;;;;;;5014099;28;20438;-75
2022/12/04 03:03:17;;;;;;;31.13;13.87;;;2.80;88.40;;;;;;5016042;28;20531;-75
2022/12/04 03:06:06;;;;;;;32.70;14.73;;;2.80;88.10;;;;;;5016336;28;20934;-74
2022/12/04 03:08:44;;;;;;;38.93;16.87;;;2.70;88.10;;;;;;5009865;28;20510;-73
2022/12/04 03:11:10;;;;;;;42.07;17.20;;;2.70;88.30;;;;;;5011676;28;20491;-73
2022/12/04 03:13:58;;;;;;;41.80;16.80;;;2.60;88.30;;;;;;5008417;28;20464;-74
2022/12/04 03:16:33;;;;;;;40.07;16.87;;;2.70;88.40;;;;;;5007520;28;20222;-74
2022/12/04 03:19:19;;;;;;;39.77;16.90;;;2.70;88.40;;;;;;5001853;28;20456;-74
2022/12/04 03:21:50;;;;;;;45.15;18.35;;;2.70;88.70;;;;;;5010146;28;20425;-74
2022/12/04 03:24:21;;;;;;;45.20;17.63;;;2.70;88.70;;;;;;5011014;28;20194;-74
2022/12/04 03:26:53;;;;;;;36.87;16.10;;;2.70;88.70;;;;;;5010885;28;20425;-74
2022/12/04 03:29:23;;;;;;;42.57;19.53;;;2.80;88.70;;;;;;5011440;28;20541;-76
2022/12/04 03:32:10;;;;;;;43.17;16.63;;;2.70;88.60;;;;;;5011562;28;20479;-75
2022/12/04 03:34:48;;;;;;;42.37;18.50;;;2.80;88.70;;;;;;5011242;28;20460;-74
2022/12/04 03:37:17;;;;;;;43.20;16.70;;;2.80;88.60;;;;;;5010109;28;20444;-73
2022/12/04 03:39:55;;;;;;;43.53;17.53;;;2.80;88.30;;;;;;5005108;28;20437;-73
2022/12/04 03:42:26;;;;;;;40.53;18.10;;;2.80;88.40;;;;;;5004264;28;20459;-73
2022/12/04 03:45:07;;;;;;;41.03;17.33;;;2.80;88.40;;;;;;5010966;28;20431;-74
2022/12/04 03:47:55;;;;;;;46.17;19.07;;;2.70;88.40;;;;;;5005569;28;21051;-74
2022/12/04 03:50:34;;;;;;;40.53;18.07;;;2.70;88.70;;;;;;5007132;28;20425;-76
2022/12/04 03:53:19;;;;;;;45.20;17.73;;;2.70;88.90;;;;;;5009561;28;20467;-74
2022/12/04 03:56:14;;;;;;;42.57;18.27;;;2.70;88.90;;;;;;5010882;28;20452;-74
2022/12/04 03:58:45;;;;;;;36.00;15.40;;;2.70;88.90;;;;;;4998683;28;20458;-74
2022/12/04 04:01:13;;;;;;;41.10;16.53;;;2.80;89.00;;;;;;5008724;28;20421;-74
2022/12/04 04:03:46;;;;;;;39.60;16.60;;;2.80;88.90;;;;;;5007481;28;20437;-75
2022/12/04 04:06:22;;;;;;;42.00;18.20;;;2.80;88.70;;;;;;5011046;28;21006;-74
2022/12/04 04:08:53;;;;;;;41.00;17.40;;;2.70;88.40;;;;;;5005485;28;20495;-74
2022/12/04 04:11:34;;;;;;;45.47;19.33;;;2.80;88.70;;;;;;5010064;28;20842;-75
2022/12/04 04:25:43;;;;;;;39.50;17.97;;;3.10;88.10;;;;;;5004735;28;20419;-74
2022/12/04 04:28:29;;;;;;;35.73;16.20;;;3.10;88.00;;;;;;5007476;28;20464;-74
2022/12/04 04:31:12;;;;;;;38.90;16.25;;;3.00;87.70;;;;;;5004935;28;20439;-74
2022/12/04 04:34:06;;;;;;;36.73;16.03;;;3.00;87.70;;;;;;5006845;28;20198;-75
2022/12/04 04:36:57;;;;;;;46.47;18.23;;;2.90;87.80;;;;;;5003583;28;20460;-75
2022/12/04 04:39:29;;;;;;;40.28;18.05;;;2.80;88.00;;;;;;5007402;28;20862;-74
2022/12/04 04:41:55;;;;;;;44.40;17.03;;;2.90;88.40;;;;;;5010069;28;20595;-74
2022/12/04 04:44:35;;;;;;;44.43;17.63;;;3.00;88.60;;;;;;5008153;28;20430;-75
2022/12/04 04:47:06;;;;;;;41.13;17.97;;;3.00;88.30;;;;;;5006567;28;20522;-76
2022/12/04 04:49:33;;;;;;;40.60;16.53;;;3.00;88.30;;;;;;5002605;28;20437;-75
2022/12/04 04:52:01;;;;;;;43.40;18.20;;;3.10;88.40;;;;;;5010052;28;20424;-75
2022/12/04 04:54:28;;;;;;;38.63;15.33;;;3.00;88.00;;;;;;5012292;28;20890;-77
2022/12/04 04:56:54;;;;;;;37.53;16.20;;;3.00;88.00;;;;;;5012153;28;20447;-76
2022/12/04 04:59:19;;;;;;;35.70;14.93;;;3.00;88.10;;;;;;5003466;28;20995;-76
2022/12/04 05:01:46;;;;;;;35.90;14.77;;;2.90;87.80;;;;;;5011639;28;20185;-76
2022/12/04 05:04:12;;;;;;;35.95;14.90;;;2.80;87.80;;;;;;5011670;28;20186;-77
2022/12/04 05:06:38;;;;;;;34.15;14.20;;;2.80;88.10;;;;;;5003545;28;20211;-75
2022/12/04 05:09:04;;;;;;;33.70;15.87;;;2.70;88.10;;;;;;5002375;28;20225;-74
2022/12/04 05:11:30;;;;;;;33.93;14.10;;;2.70;88.10;;;;;;5015486;28;20324;-75
2022/12/04 05:13:56;;;;;;;37.38;16.13;;;2.60;88.40;;;;;;5014141;28;20995;-76
2022/12/04 05:16:22;;;;;;;37.37;15.33;;;2.60;88.70;;;;;;5013307;28;20254;-74
2022/12/04 05:21:32;;;;;;;29.40;13.83;;;2.80;88.70;;;;;;5011599;28;20296;-75
2022/12/04 05:23:59;;;;;;;30.00;13.50;;;2.90;88.70;;;;;;5017767;28;20432;-73
2022/12/04 05:26:25;;;;;;;36.92;14.18;;;3.00;88.40;;;;;;5015532;28;20460;-74
2022/12/04 05:28:51;;;;;;;37.90;14.17;;;3.00;87.80;;;;;;5011779;28;20206;-74
2022/12/04 05:31:16;;;;;;;33.60;13.97;;;3.00;87.40;;;;;;5015497;28;20191;-74
2022/12/04 05:33:42;;;;;;;42.43;14.57;;;2.80;87.40;;;;;;5014918;28;20475;-75
2022/12/04 05:36:09;;;;;;;35.73;14.80;;;2.80;87.80;;;;;;5013904;28;20205;-75
2022/12/04 05:38:35;;;;;;;35.10;13.90;;;2.70;88.00;;;;;;5011841;28;20244;-74
2022/12/04 05:41:04;;;;;;;35.13;13.37;;;2.70;88.30;;;;;;5013137;28;20477;-75
2022/12/04 05:43:30;;;;;;;33.90;14.67;;;2.70;88.40;;;;;;5017778;28;20431;-76
2022/12/04 05:46:03;;;;;;;32.15;14.55;;;2.70;88.40;;;;;;5018677;28;20893;-75
2022/12/04 05:48:29;;;;;;;35.07;14.63;;;2.70;88.30;;;;;;5013495;28;20293;-75
2022/12/04 05:50:55;;;;;;;34.73;14.00;;;2.60;88.40;;;;;;5018464;28;20828;-76
2022/12/04 05:53:21;;;;;;;35.37;14.03;;;2.60;88.40;;;;;;5021935;28;20466;-74
2022/12/04 05:55:57;;;;;;;33.30;14.17;;;2.60;88.70;;;;;;5016300;28;20205;-75
2022/12/04 05:58:23;;;;;;;29.70;12.82;;;2.50;89.00;;;;;;5017476;28;20209;-74
2022/12/04 06:00:49;;;;;;;28.73;12.17;;;2.40;89.20;;;;;;5018806;28;20182;-74
2022/12/04 06:03:15;;;;;;;33.73;12.73;;;2.50;89.50;;;;;;5018217;28;20429;-75
2022/12/04 06:05:40;;;;;;;33.67;13.10;;;2.50;89.50;;;;;;5026287;28;20192;-74
2022/12/04 06:08:06;;;;;;;32.03;13.80;;;2.60;89.50;;;;;;5010028;28;20218;-74
2022/12/04 06:10:31;;;;;;;35.03;13.80;;;2.60;89.50;;;;;;5018680;28;20194;-74
2022/12/04 06:12:57;;;;;;;33.00;14.23;;;2.60;89.50;;;;;;5018105;28;20197;-75
2022/12/04 06:15:23;;;;;;;33.13;12.60;;;2.70;89.50;;;;;;5009541;28;20270;-76
2022/12/04 06:17:49;;;;;;;38.80;14.47;;;2.70;89.20;;;;;;5015092;28;20212;-75
2022/12/04 06:20:15;;;;;;;33.83;13.40;;;2.80;89.00;;;;;;5026501;28;20432;-73
2022/12/04 06:22:40;;;;;;;36.97;15.00;;;2.90;88.90;;;;;;5019063;28;20202;-73
2022/12/04 06:25:07;;;;;;;30.27;14.87;;;2.90;88.70;;;;;;5009552;28;20512;-75
2022/12/04 06:27:33;;;;;;;32.77;13.90;;;2.90;88.70;;;;;;5014287;28;20205;-74
2022/12/04 06:29:58;;;;;;;38.13;15.50;;;2.90;88.40;;;;;;5011573;28;20421;-74
2022/12/04 06:32:24;;;;;;;36.20;15.10;;;2.80;88.30;;;;;;5010163;28;20783;-77
2022/12/04 06:34:51;;;;;;;29.13;13.20;;;2.70;88.60;;;;;;5011737;28;20624;-76
2022/12/04 06:37:18;;;;;;;36.50;13.37;;;2.70;88.70;;;;;;5009609;28;20511;-76
2022/12/04 06:39:44;;;;;;;38.83;14.67;;;2.70;88.90;;;;;;5012399;28;20436;-75
2022/12/04 06:42:09;;;;;;;36.33;14.80;;;2.70;88.90;;;;;;5017688;28;20409;-76
2022/12/04 06:44:35;;;;;;;34.37;14.77;;;2.70;89.00;;;;;;5012044;28;20201;-75
2022/12/04 06:47:01;;;;;;;32.80;13.87;;;2.70;89.20;;;;;;5007652;28;20189;-75
2022/12/04 06:49:26;;;;;;;37.30;13.63;;;2.60;89.20;;;;;;5007269;28;20719;-74
2022/12/04 06:51:52;;;;;;;34.63;15.03;;;2.60;89.30;;;;;;5006475;28;20272;-75
2022/12/04 06:54:17;;;;;;;36.90;14.60;;;2.70;89.20;;;;;;5006538;28;20214;-75
2022/12/04 06:56:43;;;;;;;29.10;12.93;;;2.70;89.20;;;;;;5011678;28;20719;-75
2022/12/04 06:59:09;;;;;;;33.73;14.57;;;2.70;89.20;;;;;;5002924;28;20297;-74
2022/12/04 07:01:35;;;;;;;35.17;13.63;;;2.70;89.00;;;;;;5010668;28;20177;-73
2022/12/04 07:04:02;;;;;;;31.40;14.17;;;2.70;89.00;;;;;;5010458;28;20504;-75
2022/12/04 07:06:36;;;;;;;37.33;14.97;;;2.60;89.30;;;;;;5009470;28;20181;-76
2022/12/04 07:09:15;;;;;;;35.40;14.50;;;2.60;89.50;;;;;;5005144;28;21028;-75
2022/12/04 07:11:42;;;;;;;38.43;13.57;;;2.60;89.60;;;;;;5004630;28;20457;-74
2022/12/04 07:14:08;;;;;;;35.33;13.90;;;2.70;89.60;;;;;;5008914;28;20494;-74
2022/12/04 07:16:34;;;;;;;28.20;12.70;;;2.70;89.50;;;;;;5008035;28;20413;-76
2022/12/04 07:19:00;;;;;;;32.80;14.40;;;2.70;89.60;;;;;;5006959;28;20467;-75
2022/12/04 07:21:28;;;;;;;34.60;14.70;;;2.70;89.60;;;;;;5009821;28;20965;-74
2022/12/04 07:23:56;;;;;;;38.53;15.13;;;2.70;89.60;;;;;;5006422;28;20189;-74
2022/12/04 07:26:23;;;;;;;34.40;14.20;;;2.80;89.60;;;;;;5000865;28;20438;-76
2022/12/04 07:28:49;;;;;;;32.17;13.97;;;2.70;89.50;;;;;;5004093;28;20479;-74
2022/12/04 07:31:19;;;;;;;35.33;14.57;;;2.70;89.30;;;;;;5009262;28;20475;-75
2022/12/04 07:33:46;;;;;;;28.73;13.50;;;2.70;89.50;;;;;;5005796;28;20545;-77
2022/12/04 07:36:18;;;;;;;37.97;15.20;;;2.70;89.60;;;;;;5008510;28;20512;-74
2022/12/04 07:38:44;;;;;;;33.90;13.80;;;2.70;89.70;;;;;;4995106;28;20252;-74
2022/12/04 07:41:11;;;;;;;37.67;15.20;;;2.70;89.60;;;;;;5007411;28;20451;-73
2022/12/04 07:43:37;;;;;;;40.67;13.90;;;2.70;89.60;;;;;;5003565;28;20782;-73
2022/12/04 07:46:09;;;;;;;33.90;12.90;;;2.80;89.70;;;;;;5002961;28;20434;-73
2022/12/04 07:48:35;;;;;;;39.10;14.30;;;2.90;89.90;;;;;;4996571;28;20468;-73
2022/12/04 07:51:15;;;;;;;39.40;15.60;;;2.80;89.60;;;;;;5003096;28;20437;-72
2022/12/04 07:53:41;;;;;;;36.50;15.73;;;2.80;89.50;;;;;;4999729;28;20310;-74
2022/12/04 07:56:08;;;;;;;36.20;15.03;;;2.80;89.90;;;;;;4995647;28;20857;-73
2022/12/04 07:58:34;;;;;;;41.47;16.10;;;2.80;90.10;;;;;;5000716;28;20460;-74
2022/12/04 08:01:06;;;;;;;42.50;19.40;;;2.80;89.90;;;;;;4995226;28;20432;-75
2022/12/04 08:03:31;;;;;;;38.03;16.10;;;2.90;89.90;;;;;;5001864;28;20425;-72
2022/12/04 08:06:01;;;;;;;37.40;15.30;;;2.90;89.90;;;;;;5000970;28;20436;-75
2022/12/04 08:08:27;;;;;;;33.23;14.50;;;3.00;89.70;;;;;;4999595;28;20248;-75
2022/12/04 08:10:52;;;;;;;37.13;16.03;;;2.90;89.60;;;;;;5004650;28;20464;-76
2022/12/04 08:13:18;;;;;;;41.23;15.40;;;2.90;89.60;;;;;;5001390;28;20475;-75
2022/12/04 08:15:44;;;;;;;31.23;13.70;;;3.00;89.70;;;;;;4999252;28;20193;-74
2022/12/04 08:18:09;;;;;;;38.30;15.30;;;3.00;89.60;;;;;;4994848;28;20590;-73
2022/12/04 08:20:35;;;;;;;30.67;14.50;;;3.00;89.30;;;;;;5004714;28;20181;-73
2022/12/04 08:23:00;;;;;;;36.90;14.73;;;3.00;89.30;;;;;;5007468;28;20185;-73
2022/12/04 08:25:27;;;;;;;48.20;21.30;;;3.00;89.50;;;;;;5006145;28;20260;-74
2022/12/04 08:27:53;;;;;;;45.33;20.00;;;3.00;89.60;;;;;;5002744;28;20210;-75
2022/12/04 08:30:18;;;;;;;34.43;14.90;;;3.10;89.50;;;;;;5010383;28;20452;-74
2022/12/04 08:32:44;;;;;;;56.03;19.53;;;3.20;89.60;;;;;;5009442;28;20182;-75
2022/12/04 08:35:10;;;;;;;35.93;15.20;;;3.20;89.30;;;;;;5008180;28;20214;-74
2022/12/04 08:37:35;;;;;;;45.30;16.53;;;3.20;88.90;;;;;;5005856;28;20202;-74
2022/12/04 08:40:01;;;;;;;34.83;14.67;;;3.10;88.70;;;;;;5005660;28;20252;-75
2022/12/04 08:42:27;;;;;;;35.80;15.50;;;3.10;88.70;;;;;;5007995;28;20272;-74
2022/12/04 08:44:52;;;;;;;33.70;15.50;;;3.20;88.70;;;;;;5009840;28;20906;-73
2022/12/04 08:47:18;;;;;;;33.07;15.23;;;3.10;88.70;;;;;;5010920;28;20186;-75
2022/12/04 08:49:44;;;;;;;35.83;13.90;;;3.10;88.90;;;;;;5010994;28;20281;-75
2022/12/04 08:52:09;;;;;;;32.93;14.07;;;3.10;89.00;;;;;;5012813;28;20182;-74
2022/12/04 08:54:35;;;;;;;33.37;14.13;;;3.10;89.20;;;;;;5011862;28;20503;-75
2022/12/04 08:57:01;;;;;;;32.37;13.87;;;3.10;88.90;;;;;;5010278;28;20189;-75
2022/12/04 08:59:26;;;;;;;29.33;13.67;;;3.20;88.90;;;;;;5002801;28;20201;-73
2022/12/04 09:01:52;;;;;;;28.40;12.23;;;3.20;88.60;;;;;;5012062;28;20229;-74
2022/12/04 09:04:18;;;;;;;33.53;13.80;;;3.30;88.40;;;;;;5008481;28;20699;-74
2022/12/04 09:06:44;;;;;;;30.80;13.27;;;3.30;88.30;;;;;;5009557;28;20459;-73
2022/12/04 09:09:09;;;;;;;28.87;13.27;;;3.30;88.00;;;;;;4997377;28;20213;-74
2022/12/04 09:11:35;;;;;;;31.33;12.93;;;3.20;87.80;;;;;;5011582;28;20203;-74
2022/12/04 09:14:02;;;;;;;38.40;17.10;;;3.20;87.80;;;;;;5005596;28;20224;-75
2022/12/04 09:16:27;;;;;;;284.50;121.10;;;3.30;88.00;;;;;;5016148;28;20209;-74
2022/12/04 09:18:54;;;;;;;35.40;16.73;;;3.30;88.00;;;;;;5007276;28;21256;-73
2022/12/04 09:21:22;;;;;;;35.13;14.37;;;3.20;88.10;;;;;;5015848;28;20212;-73
2022/12/04 09:23:47;;;;;;;34.80;14.23;;;3.30;88.30;;;;;;5004408;28;20438;-73
2022/12/04 09:26:23;;;;;;;30.63;13.20;;;3.30;88.30;;;;;;5005546;28;20534;-74
2022/12/04 09:28:49;;;;;;;29.63;12.80;;;3.40;88.40;;;;;;5004610;28;20232;-72
2022/12/04 09:31:15;;;;;;;33.93;13.53;;;3.40;88.10;;;;;;5004606;28;20435;-74
2022/12/04 09:33:41;;;;;;;28.33;14.50;;;3.50;88.10;;;;;;5006277;28;20484;-73
2022/12/04 09:36:07;;;;;;;34.70;14.10;;;3.50;88.00;;;;;;5004407;28;20468;-74
2022/12/04 09:38:33;;;;;;;32.00;13.40;;;3.60;87.70;;;;;;5003685;28;20453;-73
2022/12/04 09:41:20;;;;;;;36.17;15.10;;;3.50;87.40;;;;;;5004657;28;20210;-74
2022/12/04 09:44:13;;;;;;;34.70;15.70;;;3.40;87.40;;;;;;4997749;28;20213;-74
2022/12/04 09:46:50;;;;;;;41.13;14.80;;;3.30;87.80;;;;;;4998481;28;20790;-74
2022/12/04 09:49:27;;;;;;;30.57;15.13;;;3.40;88.00;;;;;;5006403;28;20463;-73
2022/12/04 09:51:58;;;;;;;33.43;14.73;;;3.40;88.00;;;;;;5010671;28;20432;-73
2022/12/04 09:54:33;;;;;;;42.60;15.83;;;3.30;88.00;;;;;;5012688;28;20963;-74
2022/12/04 09:57:09;;;;;;;38.83;18.33;;;3.30;88.30;;;;;;5009673;28;20429;-73
2022/12/04 09:59:35;;;;;;;38.43;15.20;;;3.50;88.40;;;;;;5005073;28;20942;-74
2022/12/04 10:02:06;;;;;;;34.33;14.87;;;3.50;88.00;;;;;;5009383;28;20433;-73
2022/12/04 10:04:32;;;;;;;32.93;13.77;;;3.40;88.00;;;;;;5010479;28;20583;-73
2022/12/04 10:07:09;;;;;;;38.23;15.30;;;3.30;88.30;;;;;;5010934;28;20452;-74
2022/12/04 10:09:49;;;;;;;46.63;18.00;;;3.20;88.60;;;;;;5003331;28;20178;-71
2022/12/04 10:12:37;;;;;;;32.80;15.30;;;3.10;89.20;;;;;;5009687;28;20440;-74
2022/12/04 10:15:18;;;;;;;31.87;13.70;;;3.20;89.60;;;;;;5003915;28;20465;-74
2022/12/04 10:18:11;;;;;;;38.93;16.77;;;3.20;89.60;;;;;;5003463;28;20453;-74
2022/12/04 10:20:55;;;;;;;44.10;18.17;;;3.20;89.30;;;;;;5005277;28;20409;-73
2022/12/04 10:23:50;;;;;;;39.13;17.40;;;3.10;89.60;;;;;;5006564;28;20787;-73
2022/12/04 10:26:20;;;;;;;34.53;15.40;;;3.20;89.90;;;;;;5010144;28;20824;-73
2022/12/04 10:28:53;;;;;;;42.37;18.40;;;3.20;89.70;;;;;;5001634;28;20463;-75
2022/12/04 10:31:19;;;;;;;43.40;18.03;;;3.10;89.60;;;;;;5005867;28;20441;-73
2022/12/04 10:34:02;;;;;;;50.70;18.07;;;3.00;90.00;;;;;;5007330;28;20472;-74
2022/12/04 10:36:32;;;;;;;38.73;17.93;;;2.90;90.50;;;;;;5007188;28;20409;-73
2022/12/04 10:39:02;;;;;;;41.17;17.33;;;2.90;90.80;;;;;;5003169;28;20453;-73
2022/12/04 10:41:39;;;;;;;41.60;16.53;;;3.00;91.00;;;;;;5005614;28;20429;-73
2022/12/04 10:44:05;;;;;;;40.27;17.43;;;3.10;91.00;;;;;;5007227;28;20444;-74
2022/12/04 10:46:32;;;;;;;39.93;17.00;;;3.30;91.00;;;;;;5008182;28;20475;-73
2022/12/04 10:49:15;;;;;;;46.00;18.37;;;3.50;90.80;;;;;;5007851;28;20245;-74
2022/12/04 10:51:42;;;;;;;40.63;17.00;;;3.50;90.30;;;;;;5008399;28;20429;-74
2022/12/04 10:54:32;;;;;;;37.40;16.03;;;3.40;90.00;;;;;;5003195;28;20469;-72
2022/12/04 10:57:00;;;;;;;52.43;20.23;;;3.40;89.90;;;;;;5000777;28;20471;-75
2022/12/04 10:59:27;;;;;;;40.90;18.33;;;3.40;90.00;;;;;;5004061;28;20524;-76
2022/12/04 11:02:10;;;;;;;44.27;19.70;;;3.30;90.00;;;;;;5004958;28;20825;-74
2022/12/04 11:04:36;;;;;;;52.80;18.90;;;3.30;90.30;;;;;;5004546;28;20408;-76
2022/12/04 11:07:27;;;;;;;40.10;17.63;;;3.20;90.30;;;;;;5016406;28;20431;-77
2022/12/04 11:10:19;;;;;;;44.17;18.23;;;3.30;90.50;;;;;;5008069;28;20225;-77
2022/12/04 11:12:54;;;;;;;49.60;19.30;;;3.20;90.40;;;;;;5009544;28;20441;-74
2022/12/04 11:15:20;;;;;;;40.57;16.77;;;3.30;90.60;;;;;;5001326;28;20605;-74
2022/12/04 11:17:46;;;;;;;41.23;17.40;;;3.30;90.70;;;;;;5004616;28;21038;-75
2022/12/04 11:20:21;;;;;;;39.50;16.67;;;3.20;90.50;;;;;;5005946;28;20696;-75
2022/12/04 11:22:57;;;;;;;45.10;15.80;;;3.20;90.60;;;;;;5010583;28;20194;-75
2022/12/04 11:25:26;;;;;;;43.37;17.03;;;3.10;90.50;;;;;;5007255;28;20973;-77
2022/12/04 11:27:55;;;;;;;37.70;16.90;;;3.00;90.70;;;;;;5005276;28;20596;-74
2022/12/04 11:30:28;;;;;;;43.50;19.20;;;3.00;91.00;;;;;;5011993;28;20455;-75
2022/12/04 11:32:54;;;;;;;37.17;16.37;;;3.00;91.20;;;;;;5001304;28;20424;-75
2022/12/04 11:35:27;;;;;;;43.53;16.33;;;3.00;91.30;;;;;;5004723;28;20964;-75
2022/12/04 11:37:56;;;;;;;44.93;16.73;;;3.00;91.40;;;;;;5000236;28;20476;-75
2022/12/04 11:40:24;;;;;;;40.33;15.20;;;3.00;91.40;;;;;;5001865;28;20457;-75
2022/12/04 11:43:00;;;;;;;32.43;15.27;;;3.10;91.60;;;;;;5010602;28;21004;-75
2022/12/04 11:45:26;;;;;;;33.20;16.13;;;3.00;91.30;;;;;;5003405;28;20524;-74
2022/12/04 11:47:54;;;;;;;61.83;26.13;;;3.00;91.30;;;;;;5003513;28;20559;-75
2022/12/04 11:50:22;;;;;;;56.93;22.20;;;3.10;91.30;;;;;;5003861;28;20209;-73
2022/12/04 11:52:58;;;;;;;37.83;15.27;;;3.20;91.50;;;;;;5004950;28;20433;-73
2022/12/04 11:55:42;;;;;;;36.60;14.90;;;3.20;91.20;;;;;;5002740;28;20439;-76
2022/12/04 11:58:38;;;;;;;38.27;15.37;;;3.20;91.10;;;;;;4999726;28;20465;-74
2022/12/04 12:01:38;;;;;;;38.70;14.40;;;3.20;90.90;;;;;;4998345;28;20433;-74
2022/12/04 12:04:22;;;;;;;32.90;14.20;;;3.30;90.90;;;;;;4997292;28;20923;-75
2022/12/04 12:07:06;;;;;;;34.67;14.10;;;3.30;90.80;;;;;;4999305;28;20413;-75
2022/12/04 12:09:54;;;;;;;37.40;15.70;;;3.40;90.90;;;;;;4991085;28;20484;-76
2022/12/04 12:13:02;;;;;;;40.70;16.20;;;3.40;90.80;;;;;;5006098;28;20860;-74
2022/12/04 12:15:46;;;;;;;42.90;16.27;;;3.40;90.70;;;;;;4966015;28;20494;-74
2022/12/04 12:18:49;;;;;;;31.50;15.10;;;3.40;90.70;;;;;;4996532;28;21117;-75
2022/12/04 12:21:34;;;;;;;35.93;15.33;;;3.30;90.60;;;;;;5000692;28;20432;-75
2022/12/04 12:24:00;;;;;;;30.03;14.60;;;3.50;90.60;;;;;;5000810;28;20417;-74
2022/12/04 12:26:57;;;;;;;37.33;15.43;;;3.50;90.20;;;;;;5004831;28;21231;-75
2022/12/04 12:29:53;;;;;;;39.33;16.03;;;3.30;90.40;;;;;;5002675;28;20292;-74
2022/12/04 12:32:27;;;;;;;33.67;14.70;;;3.10;90.70;;;;;;5002988;28;20958;-74
2022/12/04 12:34:54;;;;;;;35.40;15.33;;;3.10;91.10;;;;;;5006450;28;20489;-74
2022/12/04 12:37:38;;;;;;;39.67;15.90;;;3.00;91.20;;;;;;5002469;28;20436;-75
2022/12/04 12:40:22;;;;;;;38.43;17.20;;;2.90;91.40;;;;;;4998826;28;20455;-74
2022/12/04 12:42:54;;;;;;;40.33;16.57;;;2.90;91.80;;;;;;5002168;28;20480;-75
2022/12/04 12:45:48;;;;;;;45.20;16.77;;;3.00;92.00;;;;;;5001816;28;20919;-75
2022/12/04 12:48:34;;;;;;;44.77;17.70;;;3.10;92.20;;;;;;4999053;28;20235;-76
2022/12/04 12:51:30;;;;;;;39.33;15.10;;;3.10;92.10;;;;;;5002143;28;20524;-76
2022/12/04 12:54:10;;;;;;;36.20;15.67;;;3.20;91.80;;;;;;5003040;28;20491;-76
2022/12/04 12:56:41;;;;;;;40.30;15.70;;;3.10;91.40;;;;;;5000475;28;20504;-75
2022/12/04 12:59:15;;;;;;;38.67;15.93;;;3.10;91.30;;;;;;5003630;28;20584;-75
2022/12/04 13:02:05;;;;;;;36.67;15.70;;;3.10;91.20;;;;;;5010129;28;20915;-76
2022/12/04 13:04:41;;;;;;;43.10;16.83;;;3.10;91.20;;;;;;5009415;28;20456;-75
2022/12/04 13:07:31;;;;;;;43.63;16.70;;;3.10;91.30;;;;;;5003516;28;20428;-75
2022/12/04 13:10:05;;;;;;;36.70;16.47;;;3.00;91.40;;;;;;5005672;28;20433;-74
2022/12/04 13:12:55;;;;;;;36.63;16.63;;;3.10;91.50;;;;;;4998248;28;20519;-74